createdAt,value
2018-07-25T00:01:15.571Z,95.48
2018-07-25T00:03:44.211Z,95.51
2018-07-25T00:06:12.894Z,95.36
2018-07-25T00:08:41.546Z,95.02
2018-07-25T00:11:10.175Z,95.91
2018-07-25T00:13:38.863Z,95.53
2018-07-25T00:16:07.763Z,96.04
2018-07-25T00:18:36.455Z,96.44
2018-07-25T00:21:05.186Z,96.27
2018-07-25T00:23:33.852Z,95.57
2018-07-25T00:26:02.472Z,95.99
2018-07-25T00:28:31.112Z,94.89
2018-07-25T00:30:59.791Z,95.13
2018-07-25T00:33:28.430Z,94.77
2018-07-25T00:35:57.359Z,94.77
2018-07-25T00:38:25.947Z,94.76
2018-07-25T00:40:54.570Z,95.07
2018-07-25T00:43:23.196Z,94.66
2018-07-25T00:45:51.805Z,95.31
2018-07-25T00:48:20.729Z,94.48
2018-07-25T00:50:49.430Z,94.47
2018-07-25T00:53:18.083Z,95.13
2018-07-25T00:55:46.788Z,94.23
2018-07-25T00:58:15.378Z,94.44
2018-07-25T01:00:43.989Z,94.33
2018-07-25T01:03:12.822Z,93.64
2018-07-25T01:05:41.462Z,94.45
2018-07-25T01:08:10.156Z,93.98
2018-07-25T01:10:42.755Z,94.34
2018-07-25T01:13:12.346Z,93.62
2018-07-25T01:15:41.259Z,93.33
2018-07-25T01:18:09.952Z,93.17
2018-07-25T01:20:38.681Z,93.26
2018-07-25T01:23:07.512Z,93.46
2018-07-25T01:25:36.219Z,93.21
2018-07-25T01:28:04.965Z,93.35
2018-07-25T01:30:33.578Z,94.10
2018-07-25T01:33:02.419Z,94.01
2018-07-25T01:35:31.037Z,93.98
2018-07-25T01:38:00.757Z,93.55
2018-07-25T01:40:29.465Z,94.01
2018-07-25T01:42:58.182Z,93.45
2018-07-25T01:45:26.855Z,93.40
2018-07-25T01:47:55.474Z,93.74
2018-07-25T01:50:24.086Z,94.29
2018-07-25T01:52:53.117Z,94.59
2018-07-25T01:55:21.773Z,94.53
2018-07-25T01:57:50.395Z,95.05
2018-07-25T02:00:19.295Z,94.85
2018-07-25T02:02:47.966Z,94.23
2018-07-25T02:05:16.610Z,95.19
2018-07-25T02:07:45.894Z,95.16
2018-07-25T02:10:14.515Z,95.39
2018-07-25T02:12:43.160Z,95.34
2018-07-25T02:15:11.831Z,94.87
2018-07-25T02:17:40.559Z,95.61
2018-07-25T02:20:09.499Z,95.64
2018-07-25T02:22:38.126Z,95.78
2018-07-25T02:25:06.815Z,95.64
2018-07-25T02:27:35.694Z,95.63
2018-07-25T02:30:05.636Z,95.66
2018-07-25T02:32:34.290Z,96.40
2018-07-25T02:35:03.396Z,96.09
2018-07-25T02:37:32.343Z,95.95
2018-07-25T02:40:00.995Z,96.58
2018-07-25T02:42:29.731Z,95.79
2018-07-25T02:44:58.369Z,95.74
2018-07-25T02:47:27.421Z,95.88
2018-07-25T02:49:56.067Z,96.32
2018-07-25T02:52:24.976Z,96.01
2018-07-25T02:54:53.599Z,95.42
2018-07-25T02:57:22.489Z,95.50
2018-07-25T02:59:51.092Z,95.53
2018-07-25T03:02:19.750Z,96.60
2018-07-25T03:04:48.712Z,95.76
2018-07-25T03:07:17.669Z,96.40
2018-07-25T03:09:46.600Z,96.46
2018-07-25T03:12:15.660Z,96.54
2018-07-25T03:14:44.299Z,96.27
2018-07-25T03:17:13.287Z,96.22
2018-07-25T03:19:41.945Z,95.63
2018-07-25T03:22:10.546Z,95.65
2018-07-25T03:24:39.231Z,95.87
2018-07-25T03:27:08.218Z,95.14
2018-07-25T03:29:36.867Z,95.78
2018-07-25T03:32:05.499Z,95.28
2018-07-25T03:34:34.148Z,95.70
2018-07-25T03:37:02.783Z,95.45
2018-07-25T03:39:31.459Z,95.13
2018-07-25T03:42:00.607Z,95.41
2018-07-25T03:44:29.218Z,95.21
2018-07-25T03:46:57.972Z,94.58
2018-07-25T03:49:26.838Z,94.21
2018-07-25T03:51:55.474Z,94.68
2018-07-25T03:54:24.403Z,94.05
2018-07-25T03:56:53.067Z,93.96
2018-07-25T03:59:21.729Z,93.20
2018-07-25T04:01:50.714Z,93.84
2018-07-25T04:04:19.637Z,94.18
2018-07-25T04:06:48.341Z,93.50
2018-07-25T04:09:17.029Z,93.23
2018-07-25T04:11:46.096Z,93.11
2018-07-25T04:14:14.731Z,92.83
2018-07-25T04:16:43.686Z,92.71
2018-07-25T04:19:12.599Z,92.39
2018-07-25T04:21:41.246Z,92.88
2018-07-25T04:24:09.879Z,93.09
2018-07-25T04:26:38.543Z,92.75
2018-07-25T04:29:07.175Z,93.02
2018-07-25T04:31:36.236Z,91.97
2018-07-25T04:34:04.940Z,91.54
2018-07-25T04:36:33.894Z,91.22
2018-07-25T04:39:02.563Z,90.75
2018-07-25T04:41:31.527Z,91.22
2018-07-25T04:44:00.580Z,89.97
2018-07-25T04:46:29.216Z,89.78
2018-07-25T04:48:58.477Z,90.14
2018-07-25T04:51:27.375Z,90.18
2018-07-25T04:53:56.016Z,90.70
2018-07-25T04:56:24.705Z,90.72
2018-07-25T04:58:53.300Z,91.28
2018-07-25T05:01:21.950Z,91.42
2018-07-25T05:03:50.574Z,91.07
2018-07-25T05:06:19.252Z,90.80
2018-07-25T05:08:47.906Z,91.25
2018-07-25T05:11:16.891Z,91.07
2018-07-25T05:13:45.539Z,91.75
2018-07-25T05:16:14.177Z,91.87
2018-07-25T05:21:16.623Z,91.94
2018-07-25T05:23:45.248Z,91.82
2018-07-25T05:26:13.855Z,92.14
2018-07-25T05:28:42.512Z,90.23
2018-07-25T05:31:11.155Z,88.45
2018-07-25T05:33:39.848Z,83.63
2018-07-25T05:36:08.501Z,81.06
2018-07-25T05:38:37.175Z,77.58
2018-07-25T05:41:05.843Z,78.34
2018-07-25T05:43:34.454Z,78.81
2018-07-25T05:46:03.412Z,77.39
2018-07-25T05:48:32.084Z,74.60
2018-07-25T05:51:00.971Z,73.26
2018-07-25T05:53:29.629Z,74.42
2018-07-25T05:55:58.288Z,77.77
2018-07-25T05:58:26.928Z,78.86
2018-07-25T06:00:55.624Z,81.27
2018-07-25T06:03:24.300Z,82.15
2018-07-25T06:05:53.060Z,83.87
2018-07-25T06:08:21.757Z,85.03
2018-07-25T06:10:50.490Z,85.37
2018-07-25T06:13:19.215Z,85.58
2018-07-25T06:15:47.882Z,85.25
2018-07-25T06:18:16.535Z,85.45
2018-07-25T06:20:45.232Z,84.72
2018-07-25T06:23:13.916Z,84.92
2018-07-25T06:25:42.575Z,85.88
2018-07-25T06:28:11.196Z,86.91
2018-07-25T06:30:39.948Z,86.30
2018-07-25T06:33:08.607Z,86.39
2018-07-25T06:35:37.223Z,87.29
2018-07-25T06:38:05.959Z,86.80
2018-07-25T06:40:34.636Z,84.83
2018-07-25T06:43:03.332Z,85.51
2018-07-25T06:45:32.064Z,86.80
2018-07-25T06:48:00.874Z,88.67
2018-07-25T06:50:29.485Z,88.99
2018-07-25T06:52:58.210Z,90.23
2018-07-25T06:55:26.884Z,90.16
2018-07-25T06:57:55.552Z,88.95
2018-07-25T07:00:24.328Z,89.25
2018-07-25T07:02:53.028Z,89.61
2018-07-25T07:05:21.654Z,90.79
2018-07-25T07:07:50.384Z,90.17
2018-07-25T07:10:19.051Z,90.04
2018-07-25T07:12:47.690Z,89.90
2018-07-25T07:15:16.411Z,90.52
2018-07-25T07:17:45.084Z,88.64
2018-07-25T07:20:13.795Z,87.92
2018-07-25T07:22:42.470Z,87.35
2018-07-25T07:25:11.430Z,85.69
2018-07-25T07:27:40.233Z,85.76
2018-07-25T07:30:09.120Z,84.95
2018-07-25T07:32:38.035Z,85.50
2018-07-25T07:35:06.729Z,84.54
2018-07-25T07:37:35.470Z,85.01
2018-07-25T07:40:04.238Z,83.65
2018-07-25T07:42:32.919Z,81.63
2018-07-25T07:45:01.621Z,80.94
2018-07-25T07:47:30.342Z,81.16
2018-07-25T07:49:59.115Z,83.11
2018-07-25T07:52:28.170Z,82.33
2018-07-25T07:54:57.096Z,81.72
2018-07-25T07:57:25.985Z,81.50
2018-07-25T07:59:55.002Z,81.37
2018-07-25T08:02:23.830Z,80.38
2018-07-25T08:04:52.552Z,80.95
2018-07-25T08:07:21.239Z,78.86
2018-07-25T08:09:49.943Z,76.69
2018-07-25T08:12:18.594Z,72.42
2018-07-25T08:14:47.360Z,73.09
2018-07-25T08:17:16.384Z,73.65
2018-07-25T08:19:45.128Z,74.32
2018-07-25T08:22:13.833Z,72.33
2018-07-25T08:24:42.504Z,72.50
2018-07-25T08:27:11.170Z,72.84
2018-07-25T08:29:39.818Z,75.19
2018-07-25T08:32:08.451Z,74.55
2018-07-25T08:34:37.440Z,75.14
2018-07-25T08:37:06.061Z,76.66
2018-07-25T08:39:34.773Z,76.87
2018-07-25T08:42:03.875Z,76.67
2018-07-25T08:44:32.524Z,77.11
2018-07-25T08:47:01.149Z,77.31
2018-07-25T08:49:29.758Z,78.38
2018-07-25T08:51:58.390Z,78.37
2018-07-25T08:54:27.120Z,78.72
2018-07-25T08:56:55.771Z,79.22
2018-07-25T08:59:24.448Z,80.24
2018-07-25T09:01:53.165Z,79.79
2018-07-25T09:04:21.847Z,81.01
2018-07-25T09:06:50.523Z,82.15
2018-07-25T09:09:19.174Z,83.60
2018-07-25T09:11:47.897Z,86.45
2018-07-25T09:14:16.551Z,89.61
2018-07-25T09:16:45.317Z,91.95
2018-07-25T09:19:14.074Z,94.49
2018-07-25T09:21:42.722Z,97.52
2018-07-25T09:24:11.449Z,98.48
2018-07-25T09:26:40.181Z,99.76
2018-07-25T09:29:08.870Z,100.00
2018-07-25T09:31:37.663Z,100.00
2018-07-25T09:34:06.457Z,100.00
2018-07-25T09:36:35.198Z,100.00
2018-07-25T09:39:05.344Z,100.00
2018-07-25T09:41:34.078Z,100.00
2018-07-25T09:44:03.104Z,100.00
2018-07-25T09:46:32.091Z,100.00
2018-07-25T09:49:01.429Z,100.00
2018-07-25T09:51:30.255Z,100.00
2018-07-25T09:53:58.907Z,100.00
2018-07-25T09:56:27.603Z,100.00
2018-07-25T09:58:56.288Z,100.00
2018-07-25T10:01:24.997Z,100.00
2018-07-25T10:03:53.728Z,100.00
2018-07-25T10:06:22.415Z,100.00
2018-07-25T10:08:51.383Z,100.00
2018-07-25T10:11:22.229Z,100.00
2018-07-25T10:13:51.364Z,100.00
2018-07-25T10:16:20.069Z,100.00
2018-07-25T10:18:49.083Z,100.00
2018-07-25T10:21:17.751Z,100.00
2018-07-25T10:23:46.499Z,100.00
2018-07-25T10:26:15.320Z,100.00
2018-07-25T10:28:44.095Z,100.00
2018-07-25T10:31:12.795Z,100.00
2018-07-25T10:33:41.611Z,100.00
2018-07-25T10:36:10.302Z,100.00
2018-07-25T10:38:39.254Z,100.00
2018-07-25T10:41:08.287Z,100.00
2018-07-25T10:43:37.008Z,100.00
2018-07-25T10:46:05.772Z,100.00
2018-07-25T10:48:34.468Z,100.00
2018-07-25T10:51:03.334Z,100.00
2018-07-25T10:53:31.994Z,100.00
2018-07-25T10:56:00.965Z,100.00
2018-07-25T10:58:29.615Z,100.00
2018-07-25T11:00:58.251Z,99.38
2018-07-25T11:03:27.066Z,96.91
2018-07-25T11:05:55.796Z,98.02
2018-07-25T11:08:24.471Z,98.67
2018-07-25T11:10:53.131Z,98.29
2018-07-25T11:13:21.839Z,95.97
2018-07-25T11:15:50.644Z,95.19
2018-07-25T11:18:19.342Z,92.76
2018-07-25T11:20:49.012Z,90.51
2018-07-25T11:23:17.759Z,87.09
2018-07-25T11:25:46.730Z,84.37
2018-07-25T11:28:15.352Z,85.52
2018-07-25T11:30:43.988Z,83.84
2018-07-25T11:33:12.680Z,79.06
2018-07-25T11:35:41.292Z,79.00
2018-07-25T11:38:10.039Z,78.70
2018-07-25T11:40:38.681Z,74.34
2018-07-25T11:43:07.392Z,75.03
2018-07-25T11:45:36.258Z,74.75
2018-07-25T11:48:05.022Z,71.80
2018-07-25T11:50:34.080Z,70.43
2018-07-25T11:53:02.715Z,66.21
2018-07-25T11:55:31.416Z,66.60
2018-07-25T11:58:00.053Z,61.16
2018-07-25T12:00:28.738Z,62.54
2018-07-25T12:02:57.709Z,61.29
2018-07-25T12:05:26.331Z,65.04
2018-07-25T12:07:55.009Z,67.62
2018-07-25T12:10:23.703Z,70.37
2018-07-25T12:12:52.675Z,67.78
2018-07-25T12:15:21.382Z,67.39
2018-07-25T12:17:50.080Z,70.14
2018-07-25T12:20:18.703Z,72.08
2018-07-25T12:22:47.412Z,71.37
2018-07-25T12:25:16.161Z,72.06
2018-07-25T12:27:44.819Z,72.56
2018-07-25T12:30:13.536Z,72.12
2018-07-25T12:32:42.218Z,71.28
2018-07-25T12:35:10.854Z,70.76
2018-07-25T12:37:39.577Z,71.44
2018-07-25T12:40:08.372Z,68.39
2018-07-25T12:42:37.146Z,67.46
2018-07-25T12:45:06.116Z,65.83
2018-07-25T12:47:34.966Z,64.95
2018-07-25T12:50:03.743Z,62.96
2018-07-25T12:52:32.398Z,61.27
2018-07-25T12:55:00.993Z,59.43
2018-07-25T12:57:29.969Z,63.47
2018-07-25T12:59:58.722Z,62.38
2018-07-25T13:02:27.407Z,62.06
2018-07-25T13:04:56.401Z,63.93
2018-07-25T13:07:25.081Z,63.09
2018-07-25T13:09:53.835Z,63.70
2018-07-25T13:12:22.894Z,61.70
2018-07-25T13:14:52.772Z,63.15
2018-07-25T13:17:21.512Z,62.23
2018-07-25T13:19:50.579Z,61.38
2018-07-25T13:22:19.368Z,59.49
2018-07-25T13:24:48.238Z,59.98
2018-07-25T13:27:16.933Z,60.57
2018-07-25T13:29:45.668Z,61.36
2018-07-25T13:32:14.546Z,62.15
2018-07-25T13:34:43.301Z,60.56
2018-07-25T13:37:12.070Z,59.58
2018-07-25T13:39:40.814Z,60.26
2018-07-25T13:42:09.509Z,59.55
2018-07-25T13:44:38.302Z,57.06
2018-07-25T13:47:07.135Z,49.78
2018-07-25T13:49:35.841Z,46.81
2018-07-25T13:52:04.684Z,45.93
2018-07-25T13:54:33.333Z,52.24
2018-07-25T13:57:02.268Z,57.63
2018-07-25T13:59:31.309Z,57.12
2018-07-25T14:01:59.971Z,57.18
2018-07-25T14:04:28.713Z,57.24
2018-07-25T14:06:57.531Z,58.02
2018-07-25T14:09:26.158Z,60.14
2018-07-25T14:11:54.810Z,59.73
2018-07-25T14:14:23.543Z,61.65
2018-07-25T14:16:52.486Z,61.67
2018-07-25T14:19:21.246Z,61.84
2018-07-25T14:21:49.989Z,61.83
2018-07-25T14:24:19.170Z,61.45
2018-07-25T14:26:48.073Z,64.35
2018-07-25T14:29:16.732Z,65.95
2018-07-25T14:31:45.426Z,66.55
2018-07-25T14:34:17.479Z,67.97
2018-07-25T14:36:46.464Z,68.14
2018-07-25T14:39:15.162Z,68.09
2018-07-25T14:41:44.404Z,67.97
2018-07-25T14:44:13.064Z,65.36
2018-07-25T14:46:41.813Z,64.74
2018-07-25T14:49:10.401Z,64.51
2018-07-25T14:51:39.048Z,64.87
2018-07-25T14:54:07.814Z,65.04
2018-07-25T14:56:36.533Z,65.00
2018-07-25T14:59:05.280Z,65.46
2018-07-25T15:01:33.972Z,65.94
2018-07-25T15:04:02.648Z,66.71
2018-07-25T15:06:31.562Z,65.30
2018-07-25T15:09:00.513Z,63.79
2018-07-25T15:11:29.288Z,63.93
2018-07-25T15:13:57.983Z,64.39
2018-07-25T15:16:26.910Z,65.24
2018-07-25T15:18:55.887Z,65.78
2018-07-25T15:21:24.552Z,66.46
2018-07-25T15:24:02.493Z,64.97
2018-07-25T15:26:31.432Z,65.64
2018-07-25T15:29:00.879Z,66.12
2018-07-25T15:31:29.999Z,66.82
2018-07-25T15:33:58.896Z,67.01
2018-07-25T15:36:44.498Z,67.44
2018-07-25T15:39:20.978Z,66.66
2018-07-25T15:41:50.483Z,66.93
2018-07-25T15:44:20.189Z,66.59
2018-07-25T15:46:49.507Z,66.39
2018-07-25T15:49:18.245Z,66.29
2018-07-25T15:51:47.045Z,66.99
2018-07-25T15:54:15.809Z,66.30
2018-07-25T15:56:44.671Z,67.18
2018-07-25T15:59:13.360Z,67.13
2018-07-25T16:01:42.093Z,67.36
2018-07-25T16:04:11.186Z,67.07
2018-07-25T16:06:40.237Z,67.62
2018-07-25T16:09:11.424Z,66.86
2018-07-25T16:11:40.667Z,67.56
2018-07-25T16:14:09.512Z,67.26
2018-07-25T16:16:38.479Z,67.70
2018-07-25T16:19:07.273Z,68.12
2018-07-25T16:21:36.249Z,68.11
2018-07-25T16:24:05.045Z,68.55
2018-07-25T16:26:33.673Z,68.72
2018-07-25T16:29:03.116Z,68.26
2018-07-25T16:31:31.863Z,68.35
2018-07-25T16:34:01.206Z,69.11
2018-07-25T16:36:29.906Z,69.58
2018-07-25T16:38:58.606Z,70.13
2018-07-25T16:41:27.378Z,71.56
2018-07-25T16:43:56.473Z,72.65
2018-07-25T16:46:25.277Z,73.83
2018-07-25T16:48:54.415Z,73.90
2018-07-25T16:51:23.930Z,74.77
2018-07-25T16:53:52.917Z,76.31
2018-07-25T16:56:21.919Z,76.04
2018-07-25T16:58:50.894Z,75.59
2018-07-25T17:01:19.586Z,76.63
2018-07-25T17:03:48.321Z,77.91
2018-07-25T17:06:17.130Z,78.01
2018-07-25T17:08:45.962Z,79.22
2018-07-25T17:11:14.583Z,80.52
2018-07-25T17:13:43.817Z,79.87
2018-07-25T17:16:12.833Z,80.86
2018-07-25T17:18:41.911Z,80.85
2018-07-25T17:21:11.002Z,81.21
2018-07-25T17:23:40.126Z,82.88
2018-07-25T17:26:09.214Z,84.31
2018-07-25T17:28:38.204Z,84.11
2018-07-25T17:31:07.366Z,84.92
2018-07-25T17:33:36.325Z,83.95
2018-07-25T17:36:05.073Z,84.04
2018-07-25T17:38:34.035Z,84.62
2018-07-25T17:41:02.791Z,85.02
2018-07-25T17:43:31.718Z,84.69
2018-07-25T17:46:00.427Z,82.72
2018-07-25T17:48:29.172Z,82.77
2018-07-25T17:50:57.881Z,82.59
2018-07-25T17:53:27.448Z,82.65
2018-07-25T17:55:56.582Z,82.36
2018-07-25T17:58:25.650Z,83.11
2018-07-25T18:00:54.324Z,82.82
2018-07-25T18:03:23.344Z,82.05
2018-07-25T18:05:52.363Z,82.86
2018-07-25T18:08:21.412Z,82.74
2018-07-25T18:10:50.222Z,82.13
2018-07-25T18:13:24.117Z,81.87
2018-07-25T18:15:53.148Z,82.87
2018-07-25T18:18:23.524Z,82.31
2018-07-25T18:20:52.238Z,82.15
2018-07-25T18:23:21.207Z,81.63
2018-07-25T18:25:50.144Z,81.32
2018-07-25T18:28:18.847Z,81.61
2018-07-25T18:30:47.578Z,82.10
2018-07-25T18:33:16.365Z,82.53
2018-07-25T18:35:45.125Z,82.32
2018-07-25T18:38:13.793Z,82.22
2018-07-25T18:40:42.558Z,82.43
2018-07-25T18:43:11.264Z,82.58
2018-07-25T18:45:40.397Z,81.77
2018-07-25T18:48:09.602Z,82.01
2018-07-25T18:55:55.607Z,82.55
2018-07-25T18:58:24.285Z,82.90
2018-07-25T19:00:53.373Z,81.97
2018-07-25T19:03:22.275Z,82.23
2018-07-25T19:05:50.903Z,82.98
2018-07-25T19:08:19.543Z,82.77
2018-07-25T19:10:48.198Z,83.36
2018-07-25T19:13:21.943Z,82.66
2018-07-25T19:15:51.203Z,83.06
2018-07-25T19:18:20.143Z,82.38
2018-07-25T19:20:49.319Z,83.34
2018-07-25T19:23:18.045Z,82.51
2018-07-25T19:25:47.017Z,82.99
2018-07-25T19:28:16.106Z,83.37
2018-07-25T19:30:45.003Z,82.86
2018-07-25T19:33:13.674Z,83.51
2018-07-25T19:35:42.842Z,83.76
2018-07-25T19:38:11.506Z,83.47
2018-07-25T19:40:40.130Z,83.73
2018-07-25T19:43:08.814Z,84.11
2018-07-25T19:45:37.594Z,84.20
2018-07-25T19:48:06.467Z,83.88
2018-07-25T19:50:35.219Z,84.96
2018-07-25T19:53:06.943Z,84.28
2018-07-25T19:55:35.853Z,84.74
2018-07-25T19:58:04.923Z,85.24
2018-07-25T20:00:33.814Z,85.47
2018-07-25T20:03:02.792Z,84.88
2018-07-25T20:05:31.725Z,85.85
2018-07-25T20:08:00.894Z,85.69
2018-07-25T20:10:29.886Z,85.69
2018-07-25T20:12:58.637Z,86.22
2018-07-25T20:15:32.298Z,86.32
2018-07-25T20:18:01.272Z,86.62
2018-07-25T20:20:30.870Z,86.68
2018-07-25T20:22:59.487Z,86.45
2018-07-25T20:25:28.152Z,86.52
2018-07-25T20:27:57.102Z,87.08
2018-07-25T20:30:25.764Z,87.15
2018-07-25T20:32:55.058Z,86.55
2018-07-25T20:35:23.774Z,87.03
2018-07-25T20:37:52.448Z,86.52
2018-07-25T20:40:21.123Z,87.40
2018-07-25T20:42:49.903Z,87.04
2018-07-25T20:45:18.605Z,87.25
2018-07-25T20:47:47.269Z,87.91
2018-07-25T20:50:15.886Z,89.04
2018-07-25T20:52:44.596Z,88.60
2018-07-25T20:55:14.001Z,88.70
2018-07-25T20:57:42.652Z,89.58
2018-07-25T21:00:11.558Z,89.60
2018-07-25T21:02:40.242Z,89.38
2018-07-25T21:05:08.915Z,89.90
2018-07-25T21:07:37.595Z,90.77
2018-07-25T21:10:06.335Z,90.46
2018-07-25T21:12:34.945Z,90.34
2018-07-25T21:15:03.658Z,91.19
2018-07-25T21:17:32.639Z,91.61
2018-07-25T21:20:01.273Z,91.64
2018-07-25T21:22:29.980Z,90.79
2018-07-25T21:24:58.635Z,91.02
2018-07-25T21:27:27.210Z,91.30
2018-07-25T21:29:55.835Z,91.17
2018-07-25T21:32:24.863Z,90.49
2018-07-25T21:34:53.517Z,90.17
2018-07-25T21:37:22.139Z,90.52
2018-07-25T21:39:50.827Z,90.68
2018-07-25T21:42:19.510Z,90.91
2018-07-25T21:44:48.158Z,90.49
2018-07-25T21:47:16.759Z,90.62
2018-07-25T21:49:45.446Z,91.37
2018-07-25T21:52:14.106Z,91.01
2018-07-25T21:54:42.814Z,91.86
2018-07-25T21:57:11.501Z,91.96
2018-07-25T21:59:40.195Z,91.60
2018-07-25T22:02:09.172Z,92.20
2018-07-25T22:04:38.115Z,92.24
2018-07-25T22:07:06.883Z,92.07
2018-07-25T22:09:35.513Z,92.09
2018-07-25T22:12:04.133Z,92.35
2018-07-25T22:14:32.842Z,91.97
2018-07-25T22:17:01.470Z,92.47
2018-07-25T22:19:30.110Z,92.21
2018-07-25T22:21:58.787Z,92.04
2018-07-25T22:24:27.688Z,91.63
2018-07-25T22:26:56.348Z,92.21
2018-07-25T22:29:25.096Z,92.55
2018-07-25T22:31:54.099Z,92.34
2018-07-25T22:34:23.011Z,92.91
2018-07-25T22:36:51.892Z,92.29
2018-07-25T22:39:20.574Z,92.85
2018-07-25T22:41:49.218Z,92.16
2018-07-25T22:44:18.111Z,92.18
2018-07-25T22:46:46.739Z,92.48
2018-07-25T22:49:15.362Z,92.84
2018-07-25T22:51:44.275Z,91.95
2018-07-25T22:54:13.222Z,92.35
2018-07-25T22:56:42.005Z,91.70
2018-07-25T22:59:10.647Z,92.32
2018-07-25T23:01:39.536Z,91.83
2018-07-25T23:04:08.158Z,91.58
2018-07-25T23:06:36.783Z,90.77
2018-07-25T23:09:08.171Z,91.55
2018-07-25T23:11:36.864Z,90.95
2018-07-25T23:14:05.572Z,91.82
2018-07-25T23:16:34.263Z,91.63
2018-07-25T23:19:02.890Z,91.69
2018-07-25T23:21:31.485Z,92.06
2018-07-25T23:24:00.156Z,91.20
2018-07-25T23:26:28.859Z,91.41
2018-07-25T23:28:57.523Z,91.42
2018-07-25T23:31:26.249Z,92.11
2018-07-25T23:33:54.903Z,92.49
2018-07-25T23:36:23.832Z,91.97
2018-07-25T23:38:52.479Z,92.31
2018-07-25T23:41:21.111Z,92.65
2018-07-25T23:43:49.751Z,92.12
2018-07-25T23:46:18.824Z,92.54
2018-07-25T23:48:47.415Z,92.32
2018-07-25T23:51:16.081Z,92.20
2018-07-25T23:53:45.371Z,93.50
2018-07-25T23:56:14.075Z,93.30
2018-07-25T23:58:42.781Z,92.98
